createdAt,value
2023-04-09T00:01:17.089Z,12.20
2023-04-09T00:03:45.374Z,12.17
2023-04-09T00:06:13.811Z,12.15
2023-04-09T00:08:41.753Z,12.10
2023-04-09T00:11:11.730Z,11.80
2023-04-09T00:13:40.139Z,11.54
2023-04-09T00:16:08.472Z,11.48
2023-04-09T00:18:38.434Z,11.44
2023-04-09T00:21:08.867Z,11.39
2023-04-09T00:23:37.112Z,11.36
2023-04-09T00:26:05.468Z,11.34
2023-04-09T00:28:33.724Z,11.29
2023-04-09T00:31:02.644Z,11.24
2023-04-09T00:33:31.497Z,11.21
2023-04-09T00:35:59.561Z,11.19
2023-04-09T00:38:27.958Z,11.18
2023-04-09T00:40:56.294Z,11.16
2023-04-09T00:43:25.970Z,11.13
2023-04-09T00:45:56.095Z,11.11
2023-04-09T00:48:24.821Z,11.09
2023-04-09T00:50:52.837Z,11.06
2023-04-09T00:53:21.075Z,11.03
2023-04-09T00:55:49.252Z,11.01
2023-04-09T00:58:32.748Z,10.94
2023-04-09T01:01:01.143Z,10.90
2023-04-09T01:03:32.239Z,10.86
2023-04-09T01:06:09.066Z,10.85
2023-04-09T01:08:48.406Z,10.98
2023-04-09T01:11:36.583Z,11.17
2023-04-09T01:14:08.864Z,11.15
2023-04-09T01:16:37.398Z,11.11
2023-04-09T01:19:11.441Z,11.06
2023-04-09T01:21:40.404Z,11.03
2023-04-09T01:24:40.365Z,11.01
2023-04-09T01:27:08.759Z,11.03
2023-04-09T01:29:59.554Z,11.05
2023-04-09T01:32:28.167Z,11.00
2023-04-09T01:34:58.350Z,10.97
2023-04-09T01:37:26.541Z,10.98
2023-04-09T01:39:57.574Z,11.01
2023-04-09T01:42:27.803Z,11.03
2023-04-09T01:44:57.708Z,11.02
2023-04-09T01:47:26.267Z,11.01
2023-04-09T01:49:54.317Z,10.97
2023-04-09T01:52:22.592Z,10.93
2023-04-09T01:54:50.656Z,10.91
2023-04-09T01:57:18.783Z,10.86
2023-04-09T01:59:47.194Z,10.82
2023-04-09T02:02:20.722Z,10.78
2023-04-09T02:04:49.423Z,10.74
2023-04-09T02:07:46.394Z,10.70
2023-04-09T02:10:14.566Z,10.66
2023-04-09T02:12:45.566Z,10.63
2023-04-09T02:15:14.524Z,10.60
2023-04-09T02:17:43.642Z,10.58
2023-04-09T02:20:12.564Z,10.54
2023-04-09T02:22:40.769Z,10.53
2023-04-09T02:25:08.930Z,10.54
2023-04-09T02:27:36.941Z,10.55
2023-04-09T02:30:11.136Z,10.59
2023-04-09T02:32:39.258Z,10.62
2023-04-09T02:35:10.493Z,10.63
2023-04-09T02:37:38.840Z,10.67
2023-04-09T02:40:09.728Z,10.75
2023-04-09T02:42:38.057Z,10.78
2023-04-09T02:45:07.022Z,10.82
2023-04-09T02:47:41.035Z,10.87
2023-04-09T02:50:09.547Z,10.91
2023-04-09T02:52:38.008Z,10.95
2023-04-09T02:55:08.389Z,10.95
2023-04-09T02:57:37.457Z,10.94
2023-04-09T03:00:06.141Z,10.92
2023-04-09T03:02:41.684Z,10.86
2023-04-09T03:05:09.849Z,10.84
2023-04-09T03:07:42.207Z,10.86
2023-04-09T03:10:11.052Z,10.88
2023-04-09T03:12:39.926Z,10.88
2023-04-09T03:15:08.642Z,10.90
2023-04-09T03:17:39.178Z,10.92
2023-04-09T03:20:07.895Z,10.95
2023-04-09T03:22:42.756Z,10.97
2023-04-09T03:25:29.785Z,10.98
2023-04-09T03:27:58.623Z,10.98
2023-04-09T03:30:43.674Z,10.97
2023-04-09T03:33:12.323Z,10.98
2023-04-09T03:35:50.902Z,11.01
2023-04-09T03:38:26.997Z,11.03
2023-04-09T03:40:56.273Z,11.05
2023-04-09T03:43:24.580Z,11.08
2023-04-09T03:45:53.885Z,11.13
2023-04-09T03:48:26.184Z,11.19
2023-04-09T03:50:54.326Z,11.22
2023-04-09T03:53:32.618Z,11.22
2023-04-09T03:56:04.496Z,11.23
2023-04-09T03:58:32.992Z,11.25
2023-04-09T04:01:02.303Z,11.29
2023-04-09T04:03:37.759Z,11.38
2023-04-09T04:06:28.032Z,11.47
2023-04-09T04:09:02.943Z,11.52
2023-04-09T04:11:41.305Z,11.56
2023-04-09T04:14:09.290Z,11.58
2023-04-09T04:16:41.066Z,11.60
2023-04-09T04:19:09.841Z,11.59
2023-04-09T04:21:42.260Z,11.58
2023-04-09T04:24:10.653Z,11.57
2023-04-09T04:26:42.879Z,11.56
2023-04-09T04:29:11.516Z,11.59
2023-04-09T04:31:53.929Z,11.64
2023-04-09T04:34:24.570Z,11.70
2023-04-09T04:36:59.583Z,11.75
2023-04-09T04:39:32.088Z,11.81
2023-04-09T04:42:06.083Z,11.85
2023-04-09T04:44:36.546Z,11.92
2023-04-09T04:47:15.954Z,12.00
2023-04-09T04:49:46.285Z,12.11
2023-04-09T04:52:20.164Z,12.23
2023-04-09T04:54:50.385Z,12.36
2023-04-09T04:57:21.709Z,12.50
2023-04-09T04:59:50.742Z,12.62
2023-04-09T05:02:19.269Z,12.73
2023-04-09T05:05:14.134Z,12.93
2023-04-09T05:07:51.922Z,13.13
2023-04-09T05:10:20.188Z,13.25
2023-04-09T05:12:48.677Z,13.37
2023-04-09T05:15:24.509Z,13.70
2023-04-09T05:17:52.964Z,14.34
2023-04-09T05:20:21.372Z,15.12
2023-04-09T05:23:01.356Z,16.01
2023-04-09T05:25:36.484Z,16.79
2023-04-09T05:28:05.640Z,17.52
2023-04-09T05:30:34.178Z,18.17
2023-04-09T05:33:04.379Z,18.76
2023-04-09T05:35:35.150Z,19.30
2023-04-09T05:38:05.361Z,19.79
2023-04-09T05:40:35.497Z,20.18
2023-04-09T05:43:06.157Z,20.40
2023-04-09T05:45:42.759Z,20.37
2023-04-09T05:48:13.018Z,20.31
2023-04-09T05:50:53.866Z,20.13
2023-04-09T05:53:24.678Z,19.87
2023-04-09T05:55:55.893Z,19.59
2023-04-09T05:58:25.994Z,19.41
2023-04-09T06:00:57.915Z,19.27
2023-04-09T06:03:26.294Z,19.09
2023-04-09T06:05:55.097Z,18.95
2023-04-09T06:08:24.342Z,18.89
2023-04-09T06:10:52.477Z,18.86
2023-04-09T06:13:21.371Z,18.74
2023-04-09T06:15:52.490Z,18.63
2023-04-09T06:18:20.896Z,18.50
2023-04-09T06:20:49.658Z,18.34
2023-04-09T06:23:29.017Z,18.14
2023-04-09T06:25:57.507Z,18.03
2023-04-09T06:28:25.680Z,17.97
2023-04-09T06:30:55.650Z,17.89
2023-04-09T06:33:24.323Z,17.78
2023-04-09T06:35:52.342Z,17.70
2023-04-09T06:38:21.141Z,17.68
2023-04-09T06:40:49.515Z,17.71
2023-04-09T06:43:20.094Z,17.70
2023-04-09T06:45:52.156Z,17.65
2023-04-09T06:48:20.201Z,17.62
2023-04-09T06:50:48.593Z,17.62
2023-04-09T06:53:17.815Z,17.66
2023-04-09T06:55:46.000Z,17.82
2023-04-09T06:58:16.996Z,18.07
2023-04-09T07:00:47.900Z,18.35
2023-04-09T07:03:17.378Z,18.68
2023-04-09T07:05:46.623Z,19.19
2023-04-09T07:08:15.098Z,19.83
2023-04-09T07:10:52.956Z,20.59
2023-04-09T07:13:24.958Z,21.39
2023-04-09T07:15:53.061Z,22.06
2023-04-09T07:18:21.781Z,22.79
2023-04-09T07:20:52.374Z,23.45
2023-04-09T07:23:20.743Z,23.83
2023-04-09T07:25:50.607Z,23.86
2023-04-09T07:28:19.454Z,23.71
2023-04-09T07:30:50.631Z,23.84
2023-04-09T07:33:38.633Z,24.14
2023-04-09T07:36:09.678Z,24.46
2023-04-09T07:38:37.750Z,24.89
2023-04-09T07:41:11.453Z,25.23
2023-04-09T07:43:43.592Z,25.28
2023-04-09T07:46:11.958Z,25.19
2023-04-09T07:48:42.756Z,25.12
2023-04-09T07:51:11.732Z,25.04
2023-04-09T07:53:44.120Z,24.94
2023-04-09T07:56:14.044Z,24.85
2023-04-09T07:58:42.781Z,24.79
2023-04-09T08:01:11.112Z,24.66
2023-04-09T08:03:40.280Z,24.53
2023-04-09T08:06:10.559Z,24.41
2023-04-09T08:08:44.529Z,24.31
2023-04-09T08:11:12.481Z,24.29
2023-04-09T08:13:41.085Z,24.36
2023-04-09T08:16:09.738Z,24.39
2023-04-09T08:18:42.495Z,24.30
2023-04-09T08:21:10.652Z,24.34
2023-04-09T08:23:38.762Z,24.35
2023-04-09T08:26:09.295Z,24.12
2023-04-09T08:28:37.498Z,24.39
2023-04-09T08:31:09.670Z,24.72
2023-04-09T08:33:37.882Z,25.18
2023-04-09T08:36:09.510Z,25.49
2023-04-09T08:38:37.928Z,25.62
2023-04-09T08:41:06.578Z,25.79
2023-04-09T08:43:47.221Z,25.85
2023-04-09T08:46:23.020Z,25.82
2023-04-09T08:48:51.492Z,25.83
2023-04-09T08:51:21.490Z,25.97
2023-04-09T08:53:56.588Z,26.08
2023-04-09T08:56:25.074Z,26.24
2023-04-09T08:58:53.504Z,26.44
2023-04-09T09:01:26.012Z,26.63
2023-04-09T09:03:56.465Z,26.69
2023-04-09T09:06:26.222Z,26.68
2023-04-09T09:09:24.967Z,26.57
2023-04-09T09:11:53.841Z,26.47
2023-04-09T09:14:26.175Z,26.43
2023-04-09T09:17:03.900Z,26.44
2023-04-09T09:19:36.610Z,26.50
2023-04-09T09:22:11.175Z,26.47
2023-04-09T09:24:50.290Z,26.37
2023-04-09T09:27:37.046Z,26.37
2023-04-09T09:30:07.242Z,26.45
2023-04-09T09:32:37.351Z,26.64
2023-04-09T09:35:06.996Z,26.79
2023-04-09T09:37:35.146Z,26.82
2023-04-09T09:40:07.119Z,26.86
2023-04-09T09:42:37.356Z,26.82
2023-04-09T09:45:17.732Z,26.81
2023-04-09T09:47:48.752Z,26.79
2023-04-09T09:50:17.552Z,26.77
2023-04-09T09:52:45.938Z,26.59
2023-04-09T09:55:15.412Z,26.25
2023-04-09T09:57:44.757Z,25.77
2023-04-09T10:00:17.728Z,25.31
2023-04-09T10:02:57.381Z,24.88
2023-04-09T10:05:27.881Z,24.37
2023-04-09T10:07:58.337Z,24.03
2023-04-09T10:10:26.478Z,23.63
2023-04-09T10:12:54.836Z,23.11
2023-04-09T10:15:24.167Z,22.63
2023-04-09T10:17:54.600Z,22.22
2023-04-09T10:20:29.179Z,21.82
2023-04-09T10:22:57.352Z,21.61
2023-04-09T10:25:26.527Z,21.48
2023-04-09T10:28:02.264Z,21.41
2023-04-09T10:30:34.361Z,21.27
2023-04-09T10:33:26.522Z,21.15
2023-04-09T10:36:05.765Z,21.25
2023-04-09T10:38:45.315Z,21.48
2023-04-09T10:41:22.482Z,21.75
2023-04-09T10:43:51.078Z,22.00
2023-04-09T10:46:31.813Z,22.20
2023-04-09T10:49:16.941Z,22.41
2023-04-09T10:52:01.915Z,22.54
2023-04-09T10:54:34.365Z,22.60
2023-04-09T10:57:11.609Z,22.50
2023-04-09T10:59:49.163Z,22.39
2023-04-09T11:02:43.327Z,22.28
2023-04-09T11:05:18.056Z,22.28
2023-04-09T11:07:58.716Z,22.16
2023-04-09T11:10:27.266Z,22.09
2023-04-09T11:12:57.283Z,22.17
2023-04-09T11:15:28.662Z,22.32
2023-04-09T11:17:57.882Z,22.44
2023-04-09T11:20:43.647Z,22.54
2023-04-09T11:23:13.394Z,22.62
2023-04-09T11:25:43.286Z,22.72
2023-04-09T11:28:29.945Z,22.82
2023-04-09T11:31:11.798Z,22.94
2023-04-09T11:33:47.121Z,22.99
2023-04-09T11:36:15.297Z,22.96
2023-04-09T11:38:44.928Z,22.87
2023-04-09T11:41:13.707Z,22.80
2023-04-09T11:43:42.544Z,22.63
2023-04-09T11:46:14.687Z,22.59
2023-04-09T11:48:44.091Z,22.65
2023-04-09T11:51:21.020Z,22.68
2023-04-09T11:53:54.814Z,22.72
2023-04-09T11:56:22.928Z,22.72
2023-04-09T11:58:58.784Z,22.73
2023-04-09T12:01:32.546Z,22.77
2023-04-09T12:04:01.690Z,22.87
2023-04-09T12:06:40.516Z,22.92
2023-04-09T12:09:08.713Z,23.00
2023-04-09T12:11:47.813Z,23.07
2023-04-09T12:14:34.971Z,22.83
2023-04-09T12:17:05.260Z,22.31
2023-04-09T12:19:54.137Z,22.41
2023-04-09T12:22:41.945Z,22.54
2023-04-09T12:25:13.993Z,22.68
2023-04-09T12:27:47.031Z,22.90
2023-04-09T12:30:16.931Z,23.08
2023-04-09T12:32:52.669Z,23.05
2023-04-09T12:35:22.910Z,22.83
2023-04-09T12:37:53.750Z,22.69
2023-04-09T12:40:24.758Z,22.54
2023-04-09T12:42:59.274Z,22.57
2023-04-09T12:45:28.306Z,22.54
2023-04-09T12:47:59.534Z,22.54
2023-04-09T12:50:28.604Z,22.64
2023-04-09T12:52:56.700Z,22.84
2023-04-09T12:55:26.774Z,22.89
2023-04-09T12:57:57.074Z,22.93
2023-04-09T13:00:25.239Z,22.90
2023-04-09T13:02:57.923Z,22.78
2023-04-09T13:05:26.089Z,22.60
2023-04-09T13:07:54.801Z,22.36
2023-04-09T13:10:23.627Z,22.25
2023-04-09T13:12:52.578Z,22.10
2023-04-09T13:15:23.060Z,21.89
2023-04-09T13:17:56.399Z,21.57
2023-04-09T13:20:27.731Z,21.33
2023-04-09T13:22:56.528Z,21.01
2023-04-09T13:25:24.990Z,20.72
2023-04-09T13:27:58.003Z,20.52
2023-04-09T13:30:26.553Z,20.32
2023-04-09T13:33:01.634Z,20.23
2023-04-09T13:35:41.235Z,20.13
2023-04-09T13:38:16.287Z,20.05
2023-04-09T13:40:50.063Z,19.92
2023-04-09T13:43:21.293Z,19.71
2023-04-09T13:45:50.191Z,19.60
2023-04-09T13:48:19.041Z,19.52
2023-04-09T13:50:50.287Z,19.46
2023-04-09T13:53:19.603Z,19.40
2023-04-09T13:55:49.074Z,19.14
2023-04-09T13:58:17.073Z,18.75
2023-04-09T14:00:48.294Z,18.39
2023-04-09T14:03:16.802Z,18.04
2023-04-09T14:05:45.388Z,17.68
2023-04-09T14:08:19.197Z,17.43
2023-04-09T14:10:48.636Z,17.24
2023-04-09T14:13:17.246Z,16.95
2023-04-09T14:15:46.405Z,16.70
2023-04-09T14:18:15.559Z,16.52
2023-04-09T14:20:44.756Z,16.36
2023-04-09T14:23:13.235Z,16.21
2023-04-09T14:25:43.535Z,16.07
2023-04-09T14:28:11.837Z,15.92
2023-04-09T14:30:42.389Z,15.69
2023-04-09T14:33:33.154Z,15.39
2023-04-09T14:36:04.838Z,15.11
2023-04-09T14:38:37.759Z,14.88
2023-04-09T14:41:06.919Z,14.73
2023-04-09T14:43:35.613Z,14.64
2023-04-09T14:46:13.553Z,14.61
2023-04-09T14:48:46.863Z,14.60
2023-04-09T14:51:16.749Z,14.61
2023-04-09T14:53:52.971Z,14.62
2023-04-09T14:56:21.580Z,14.61
2023-04-09T14:58:49.935Z,14.60
2023-04-09T15:01:21.532Z,14.61
2023-04-09T15:04:11.414Z,14.65
2023-04-09T15:06:42.528Z,14.67
2023-04-09T15:09:15.025Z,14.66
2023-04-09T15:11:45.698Z,14.67
2023-04-09T15:14:17.883Z,14.69
2023-04-09T15:16:48.659Z,14.73
2023-04-09T15:19:18.182Z,14.79
2023-04-09T15:21:46.380Z,14.81
2023-04-09T15:24:19.633Z,14.80
2023-04-09T15:26:47.811Z,14.78
2023-04-09T15:29:22.500Z,14.75
2023-04-09T15:31:56.320Z,14.70
2023-04-09T15:34:32.727Z,14.65
2023-04-09T15:37:04.442Z,14.58
2023-04-09T15:39:32.829Z,14.55
2023-04-09T15:42:02.275Z,14.54
2023-04-09T15:44:31.646Z,14.52
2023-04-09T15:47:11.305Z,14.51
2023-04-09T15:49:43.092Z,14.49
2023-04-09T15:52:16.166Z,14.47
2023-04-09T15:54:46.710Z,14.47
2023-04-09T15:57:22.505Z,14.48
2023-04-09T15:59:50.825Z,14.50
2023-04-09T16:02:25.924Z,14.52
2023-04-09T16:04:56.448Z,14.54
2023-04-09T16:07:25.840Z,14.54
2023-04-09T16:09:54.537Z,14.53
2023-04-09T16:12:26.419Z,14.54
2023-04-09T16:15:08.114Z,14.57
2023-04-09T16:17:40.845Z,14.58
2023-04-09T16:20:11.591Z,14.56
2023-04-09T16:22:45.958Z,14.53
2023-04-09T16:25:14.506Z,14.54
2023-04-09T16:27:48.570Z,14.52
2023-04-09T16:30:23.815Z,14.50
2023-04-09T16:32:56.323Z,14.51
2023-04-09T16:35:26.123Z,14.51
2023-04-09T16:38:09.402Z,14.51
2023-04-09T16:40:46.434Z,14.51
2023-04-09T16:43:18.862Z,14.50
2023-04-09T16:45:48.079Z,14.49
2023-04-09T16:48:37.241Z,14.50
2023-04-09T16:51:12.572Z,14.49
2023-04-09T16:53:44.860Z,14.47
2023-04-09T16:56:19.508Z,14.47
2023-04-09T16:58:48.501Z,14.49
2023-04-09T17:01:21.239Z,14.49
2023-04-09T17:03:49.783Z,14.50
2023-04-09T17:06:18.816Z,14.48
2023-04-09T17:08:48.122Z,14.49
2023-04-09T17:11:17.132Z,14.49
2023-04-09T17:13:51.947Z,14.50
2023-04-09T17:16:24.939Z,14.51
2023-04-09T17:18:53.523Z,14.52
2023-04-09T17:21:27.454Z,14.54
2023-04-09T17:24:04.213Z,14.54
2023-04-09T17:26:34.797Z,14.59
2023-04-09T17:29:03.561Z,14.59
2023-04-09T17:31:32.104Z,14.59
2023-04-09T17:34:19.478Z,14.58
2023-04-09T17:36:56.516Z,14.59
2023-04-09T17:39:32.963Z,14.60
2023-04-09T17:42:03.547Z,14.62
2023-04-09T17:44:39.381Z,14.61
2023-04-09T17:47:12.370Z,14.61
2023-04-09T17:49:43.780Z,14.62
2023-04-09T17:52:14.885Z,14.62
2023-04-09T17:54:46.830Z,14.62
2023-04-09T17:57:15.686Z,14.60
2023-04-09T17:59:49.121Z,14.54
2023-04-09T18:02:19.967Z,14.50
2023-04-09T18:04:55.512Z,14.44
2023-04-09T18:07:24.540Z,14.37
2023-04-09T18:09:53.016Z,14.33
2023-04-09T18:12:21.679Z,14.34
2023-04-09T18:15:04.457Z,14.34
2023-04-09T18:17:41.452Z,14.34
2023-04-09T18:20:15.690Z,14.33
2023-04-09T18:22:44.354Z,14.35
2023-04-09T18:25:21.658Z,14.36
2023-04-09T18:27:50.639Z,14.36
2023-04-09T18:30:26.387Z,14.38
2023-04-09T18:32:59.854Z,14.37
2023-04-09T18:35:32.105Z,14.36
2023-04-09T18:38:08.465Z,14.36
2023-04-09T18:40:42.457Z,14.36
2023-04-09T18:43:15.278Z,14.37
2023-04-09T18:45:43.913Z,14.39
2023-04-09T18:48:13.360Z,14.40
2023-04-09T18:50:41.680Z,14.39
2023-04-09T18:53:09.844Z,14.39
2023-04-09T18:55:38.584Z,14.40
2023-04-09T18:58:15.844Z,14.39
2023-04-09T19:00:47.309Z,14.39
2023-04-09T19:03:17.143Z,14.39
2023-04-09T19:05:45.593Z,14.36
2023-04-09T19:08:13.945Z,14.35
2023-04-09T19:10:42.455Z,14.35
2023-04-09T19:13:11.015Z,14.37
2023-04-09T19:15:39.678Z,14.38
2023-04-09T19:18:07.882Z,14.37
2023-04-09T19:20:37.882Z,14.39
2023-04-09T19:23:06.923Z,14.43
2023-04-09T19:25:37.011Z,14.45
2023-04-09T19:28:07.337Z,14.48
2023-04-09T19:30:35.753Z,14.51
2023-04-09T19:33:10.418Z,14.53
2023-04-09T19:35:41.362Z,14.55
2023-04-09T19:38:09.846Z,14.53
2023-04-09T19:40:38.947Z,14.48
2023-04-09T19:43:10.377Z,14.48
2023-04-09T19:45:38.637Z,14.43
2023-04-09T19:48:07.412Z,14.41
2023-04-09T19:50:38.768Z,14.40
2023-04-09T19:53:07.037Z,14.41
2023-04-09T19:55:35.343Z,14.43
2023-04-09T19:58:03.796Z,14.44
2023-04-09T20:00:32.900Z,14.45
2023-04-09T20:03:03.075Z,14.48
2023-04-09T20:05:31.794Z,14.50
2023-04-09T20:08:02.589Z,14.51
2023-04-09T20:10:39.835Z,14.51
2023-04-09T20:13:08.951Z,14.52
2023-04-09T20:15:37.042Z,14.49
2023-04-09T20:18:10.300Z,14.46
2023-04-09T20:20:40.811Z,14.43
2023-04-09T20:23:08.759Z,14.41
2023-04-09T20:25:38.749Z,14.37
2023-04-09T20:28:09.938Z,14.39
2023-04-09T20:30:38.071Z,14.40
2023-04-09T20:33:06.702Z,14.43
2023-04-09T20:35:36.356Z,14.45
2023-04-09T20:38:04.635Z,14.48
2023-04-09T20:40:32.665Z,14.48
2023-04-09T20:43:04.131Z,14.47
2023-04-09T20:45:37.810Z,14.45
2023-04-09T20:48:06.819Z,14.45
2023-04-09T20:50:35.500Z,14.45
2023-04-09T20:53:05.911Z,14.45
2023-04-09T20:55:34.085Z,14.47
2023-04-09T20:58:06.357Z,14.47
2023-04-09T21:00:36.001Z,14.47
2023-04-09T21:03:04.170Z,14.45
2023-04-09T21:05:38.998Z,14.47
2023-04-09T21:08:09.659Z,14.46
2023-04-09T21:10:38.099Z,14.44
2023-04-09T21:13:06.378Z,14.43
2023-04-09T21:15:35.887Z,14.38
2023-04-09T21:18:04.208Z,14.34
2023-04-09T21:20:43.600Z,14.34
2023-04-09T21:23:13.649Z,14.33
2023-04-09T21:25:42.516Z,14.29
2023-04-09T21:28:12.227Z,14.28
2023-04-09T21:30:40.495Z,14.29
2023-04-09T21:33:09.108Z,14.30
2023-04-09T21:35:41.452Z,14.30
2023-04-09T21:38:09.984Z,14.31
2023-04-09T21:40:38.079Z,14.29
2023-04-09T21:43:06.845Z,14.26
2023-04-09T21:45:34.890Z,14.26
2023-04-09T21:48:04.261Z,14.25
2023-04-09T21:50:32.964Z,14.29
2023-04-09T21:53:01.123Z,14.33
2023-04-09T21:55:31.739Z,14.35
2023-04-09T21:57:59.946Z,14.37
2023-04-09T22:00:29.442Z,14.40
2023-04-09T22:03:03.989Z,14.41
2023-04-09T22:05:34.447Z,14.43
2023-04-09T22:08:05.642Z,14.42
2023-04-09T22:10:34.132Z,14.42
2023-04-09T22:13:10.923Z,14.39
2023-04-09T22:15:41.993Z,14.39
2023-04-09T22:18:10.112Z,14.37
2023-04-09T22:20:45.284Z,14.36
2023-04-09T22:23:15.851Z,14.37
2023-04-09T22:25:44.156Z,14.36
2023-04-09T22:28:19.901Z,14.37
2023-04-09T22:30:48.657Z,14.38
2023-04-09T22:33:17.156Z,14.38
2023-04-09T22:35:45.957Z,14.37
2023-04-09T22:38:16.524Z,14.33
2023-04-09T22:40:46.521Z,14.33
2023-04-09T22:43:14.922Z,14.35
2023-04-09T22:45:51.354Z,14.37
2023-04-09T22:48:23.269Z,14.40
2023-04-09T22:50:51.396Z,14.43
2023-04-09T22:53:20.851Z,14.43
2023-04-09T22:55:53.647Z,14.43
2023-04-09T22:58:21.607Z,14.40
2023-04-09T23:00:50.577Z,14.38
2023-04-09T23:03:18.867Z,14.36
2023-04-09T23:05:47.035Z,14.34
2023-04-09T23:08:17.775Z,14.33
2023-04-09T23:10:51.814Z,14.33
2023-04-09T23:13:19.834Z,14.32
2023-04-09T23:15:50.994Z,14.32
2023-04-09T23:18:19.206Z,14.35
2023-04-09T23:20:47.532Z,14.37
2023-04-09T23:23:17.533Z,14.37
2023-04-09T23:25:45.738Z,14.38
2023-04-09T23:28:14.598Z,14.37
2023-04-09T23:30:42.723Z,14.38
2023-04-09T23:33:13.304Z,14.40
2023-04-09T23:35:41.688Z,14.40
2023-04-09T23:38:11.032Z,14.39
2023-04-09T23:40:40.219Z,14.39
2023-04-09T23:43:08.377Z,14.41
2023-04-09T23:45:37.706Z,14.40
2023-04-09T23:48:07.608Z,14.37
2023-04-09T23:50:39.796Z,14.35
2023-04-09T23:53:07.976Z,14.31
2023-04-09T23:55:41.249Z,14.30
2023-04-09T23:58:10.989Z,14.26
